Airfield :
LOGIN :

Register | Disclaimer

   EN    FR    IT 

 










Legend :    VFR   Marginal VFR   IFR   Intensive IFR   Very Intensive IFR
Visi :
Ceiling :
>= 8 km
>= 3000ft
5 to 8 km
1000 to 3000 ft
1500m to 5 km
500 to 1000 ft
800 to 1500m
200 to 500 ft
< 800m
< 200 ft
Symbols :   Thunderstorms  Fog  Heavy snow  Heavy precipitations  Wind > 20 kt
SIGMETs :     Misc.  Thunderstorms  Icing  Turbulence  Mountain Waves  Volcanic Ashes







- Airport Elevation : 359 ft
- IATA code : BVA
- Download approach charts


LFOB - Beauvais

CURRENT METAR :
  • 250630Z AUTO 29004KT 2500 BR VV/// 12/11 Q1017 BECMG 4000 BR BKN006

EXPIRED METARs :
  • 250600Z AUTO 31003KT 0350 0300 R30/0550N R12/0400N FG VV/// 11/10 Q1017 BECMG 4000 BR BKN006
  • 250530Z AUTO 00000KT 0300 0250 R30/0375N R12/0350N FG VV/// 10/10 Q1017 BECMG 4000 BR BKN006
  • 250500Z AUTO 31002KT 0300 R30/0350N R12/0450N FG VV/// 10/09 Q1017 BECMG 4000 BR OVC007
  • 250430Z AUTO 31004KT 0250 0200 R30/0350U R12/0375U FG VV/// 10/09 Q1017 BECMG 4000 BR OVC007
  • 250400Z AUTO 00000KT 0200 R30/0225N R12/0225D FG VV/// 10/10 Q1017 NOSIG

TAF TAF LFOB
Valid from the 25 at 06:00 until the 26 at 06:00 UTC


250500Z 2506/2606 VRB02KT 0400 FG VV///
TEMPO 2506/2507 0200
BECMG 2507/2509 4000 BR BKN006
BECMG 2509/2511 9999 NSW SCT030
TEMPO 2512/2602 3000 SHRA BKN040CB
PROB40
TEMPO 2516/2602 VRB25G40KT 1000 TSRAGR
ATIS : +33 3 44 11 49 28
No reported NOTAMs for that airfield.



MET'MAP, your aeronautical weather chart ! - Copyright ORBIFLY December 2007 - Disclaimer

ORBIFLY MET'MAP TEAM :

Programming & Development : Alexandra Zaïnal
Concept & Development : Baudouin d'Aumeries
Co-Development & Prog : Marc-Olivier Méhu
Technical & hardware support : Manuel Goepfert

Contact : metmap@orbifly.com




SOURCES & CREDITS :

   NOAA